createdAt,value
2023-01-31T00:00:48.575Z,3.38
2023-01-31T00:01:51.488Z,3.60
2023-01-31T00:02:54.266Z,3.13
2023-01-31T00:04:00.786Z,1.67
2023-01-31T00:05:03.918Z,2.40
2023-01-31T00:06:27.758Z,1.67
2023-01-31T00:07:30.516Z,2.10
2023-01-31T00:08:33.333Z,3.00
2023-01-31T00:09:36.217Z,3.55
2023-01-31T00:10:39.344Z,2.25
2023-01-31T00:11:44.490Z,2.17
2023-01-31T00:12:47.285Z,2.30
2023-01-31T00:13:50.656Z,3.25
2023-01-31T00:14:53.588Z,1.85
2023-01-31T00:15:57.776Z,1.88
2023-01-31T00:17:00.847Z,1.85
2023-01-31T00:18:03.907Z,2.20
2023-01-31T00:19:06.795Z,2.55
2023-01-31T00:20:10.342Z,2.08
2023-01-31T00:21:19.124Z,2.00
2023-01-31T00:22:24.117Z,2.20
2023-01-31T00:23:26.947Z,2.08
2023-01-31T00:24:29.844Z,2.03
2023-01-31T00:25:32.677Z,3.47
2023-01-31T00:26:36.198Z,1.67
2023-01-31T00:27:39.433Z,2.13
2023-01-31T00:28:43.471Z,3.60
2023-01-31T00:29:46.986Z,2.03
2023-01-31T00:30:52.599Z,3.13
2023-01-31T00:31:58.085Z,1.77
2023-01-31T00:33:01.089Z,2.30
2023-01-31T00:34:03.996Z,2.03
2023-01-31T00:35:07.088Z,1.77
2023-01-31T00:36:15.673Z,1.92
2023-01-31T00:37:18.487Z,1.90
2023-01-31T00:38:21.444Z,2.20
2023-01-31T00:39:24.287Z,3.13
2023-01-31T00:40:29.446Z,2.78
2023-01-31T00:41:36.577Z,2.50
2023-01-31T00:42:41.046Z,3.00
2023-01-31T00:43:47.184Z,2.45
2023-01-31T00:44:50.031Z,2.25
2023-01-31T00:45:56.323Z,1.70
2023-01-31T00:47:00.664Z,2.40
2023-01-31T00:48:03.898Z,3.30
2023-01-31T00:49:06.819Z,3.35
2023-01-31T00:50:14.308Z,1.90
2023-01-31T00:51:18.070Z,2.22
2023-01-31T00:52:20.975Z,1.90
2023-01-31T00:53:24.105Z,3.10
2023-01-31T00:54:26.955Z,2.17
2023-01-31T00:55:31.105Z,3.03
2023-01-31T00:56:34.633Z,2.83
2023-01-31T00:57:37.540Z,3.17
2023-01-31T00:58:40.510Z,3.20
2023-01-31T00:59:43.569Z,3.20
2023-01-31T01:00:47.210Z,3.30
2023-01-31T01:01:50.222Z,2.58
2023-01-31T01:02:53.122Z,3.17
2023-01-31T01:03:57.855Z,2.10
2023-01-31T01:05:00.737Z,1.92
2023-01-31T01:06:04.190Z,3.42
2023-01-31T01:07:06.988Z,1.70
2023-01-31T01:08:10.375Z,1.98
2023-01-31T01:09:14.739Z,3.05
2023-01-31T01:10:20.418Z,2.10
2023-01-31T01:11:26.120Z,2.22
2023-01-31T01:12:29.325Z,2.25
2023-01-31T01:13:32.171Z,1.63
2023-01-31T01:14:35.543Z,3.50
2023-01-31T01:15:39.914Z,2.08
2023-01-31T01:16:42.951Z,2.20
2023-01-31T01:17:45.853Z,3.92
2023-01-31T01:18:51.251Z,2.17
2023-01-31T01:19:54.078Z,3.20
2023-01-31T01:20:56.923Z,3.25
2023-01-31T01:21:59.718Z,2.97
2023-01-31T01:23:04.698Z,1.58
2023-01-31T01:24:12.301Z,3.33
2023-01-31T01:25:15.344Z,2.10
2023-01-31T01:26:27.043Z,3.17
2023-01-31T01:27:30.389Z,3.65
2023-01-31T01:28:35.403Z,1.90
2023-01-31T01:29:39.402Z,3.28
2023-01-31T01:30:42.267Z,3.08
2023-01-31T01:31:45.630Z,1.63
2023-01-31T01:32:48.931Z,3.72
2023-01-31T01:33:52.009Z,1.90
2023-01-31T01:34:55.144Z,2.05
2023-01-31T01:36:02.164Z,3.25
2023-01-31T01:37:11.889Z,1.77
2023-01-31T01:38:14.812Z,2.28
2023-01-31T01:39:19.391Z,2.40
2023-01-31T01:40:22.592Z,2.78
2023-01-31T01:41:26.067Z,1.95
2023-01-31T01:42:36.399Z,2.88
2023-01-31T01:43:47.840Z,2.10
2023-01-31T01:44:55.881Z,3.70
2023-01-31T01:45:58.850Z,3.28
2023-01-31T01:47:02.281Z,3.25
2023-01-31T01:48:09.362Z,2.05
2023-01-31T01:49:28.754Z,3.70
2023-01-31T01:50:39.911Z,2.25
2023-01-31T01:51:45.134Z,2.53
2023-01-31T01:53:22.894Z,1.80
2023-01-31T01:54:32.877Z,2.05
2023-01-31T01:55:49.389Z,1.77
2023-01-31T01:57:02.230Z,2.05
2023-01-31T01:58:25.359Z,3.30
2023-01-31T01:59:55.629Z,3.13
2023-01-31T02:01:00.629Z,1.88
2023-01-31T02:02:04.367Z,2.13
2023-01-31T02:03:11.454Z,2.53
2023-01-31T02:04:23.098Z,2.35
2023-01-31T02:05:53.143Z,3.25
2023-01-31T02:06:56.363Z,2.25
2023-01-31T02:08:01.572Z,2.08
2023-01-31T02:09:07.053Z,2.00
2023-01-31T02:10:17.582Z,2.22
2023-01-31T02:11:29.830Z,1.95
2023-01-31T02:12:36.055Z,1.98
2023-01-31T02:13:41.816Z,2.22
2023-01-31T02:14:51.193Z,3.17
2023-01-31T02:16:12.268Z,2.15
2023-01-31T02:17:18.845Z,2.03
2023-01-31T02:18:24.500Z,2.13
2023-01-31T02:19:38.972Z,2.22
2023-01-31T02:20:55.913Z,2.60
2023-01-31T02:22:31.925Z,2.13
2023-01-31T02:23:43.972Z,2.45
2023-01-31T02:25:04.791Z,2.03
2023-01-31T02:26:13.293Z,2.47
2023-01-31T02:27:34.594Z,3.88
2023-01-31T02:29:00.219Z,2.00
2023-01-31T02:30:17.888Z,3.30
2023-01-31T02:31:36.207Z,3.65
2023-01-31T02:33:02.116Z,2.17
2023-01-31T02:34:17.128Z,2.38
2023-01-31T02:35:38.982Z,3.10
2023-01-31T02:36:53.761Z,2.40
2023-01-31T02:38:34.403Z,3.53
2023-01-31T02:40:06.124Z,2.45
2023-01-31T02:41:14.947Z,2.30
2023-01-31T02:42:48.063Z,3.63
2023-01-31T02:44:41.331Z,2.30
2023-01-31T02:45:58.737Z,2.22
2023-01-31T02:47:15.630Z,4.85
2023-01-31T02:48:46.453Z,3.28
2023-01-31T02:50:04.096Z,2.25
2023-01-31T02:51:25.835Z,2.25
2023-01-31T02:52:59.627Z,4.03
2023-01-31T02:54:09.853Z,2.65
2023-01-31T02:56:00.596Z,2.40
2023-01-31T02:57:03.711Z,2.72
2023-01-31T02:58:10.047Z,2.53
2023-01-31T02:59:19.818Z,2.47
2023-01-31T03:00:24.424Z,2.53
2023-01-31T03:01:33.441Z,4.32
2023-01-31T03:02:36.775Z,2.35
2023-01-31T03:03:42.342Z,2.20
2023-01-31T03:04:45.294Z,2.05
2023-01-31T03:06:23.780Z,4.13
2023-01-31T03:07:33.717Z,3.90
2023-01-31T03:08:38.842Z,2.42
2023-01-31T03:09:49.856Z,2.60
2023-01-31T03:11:02.578Z,2.60
2023-01-31T03:12:48.874Z,3.45
2023-01-31T03:14:03.468Z,3.65
2023-01-31T03:15:13.767Z,3.42
2023-01-31T03:16:45.925Z,2.17
2023-01-31T03:18:12.940Z,4.15
2023-01-31T03:19:49.864Z,2.20
2023-01-31T03:21:04.202Z,3.83
2023-01-31T03:22:24.711Z,3.25
2023-01-31T03:23:31.425Z,2.45
2023-01-31T03:24:34.849Z,2.63
2023-01-31T03:25:39.870Z,3.67
2023-01-31T03:27:05.146Z,3.45
2023-01-31T03:28:13.326Z,2.72
2023-01-31T03:29:17.694Z,2.30
2023-01-31T03:30:45.460Z,4.25
2023-01-31T03:31:57.385Z,4.20
2023-01-31T03:33:06.544Z,2.60
2023-01-31T03:34:15.814Z,3.95
2023-01-31T03:35:22.725Z,4.15
2023-01-31T03:36:57.687Z,3.70
2023-01-31T03:38:32.564Z,4.30
2023-01-31T03:39:56.900Z,2.63
2023-01-31T03:41:11.330Z,2.80
2023-01-31T03:42:43.632Z,3.55
2023-01-31T03:44:09.743Z,3.30
2023-01-31T03:45:20.470Z,2.50
2023-01-31T03:46:38.033Z,3.92
2023-01-31T03:47:44.373Z,3.97
2023-01-31T03:48:50.400Z,3.92
2023-01-31T03:49:55.327Z,2.65
2023-01-31T03:51:01.854Z,2.15
2023-01-31T03:52:08.405Z,4.00
2023-01-31T03:53:18.699Z,4.07
2023-01-31T03:54:29.983Z,3.65
2023-01-31T03:55:41.914Z,2.15
2023-01-31T03:57:16.972Z,3.42
2023-01-31T03:58:23.091Z,2.60
2023-01-31T03:59:31.665Z,4.40
2023-01-31T04:00:37.891Z,3.50
2023-01-31T04:01:45.433Z,3.83
2023-01-31T04:03:58.275Z,3.53
2023-01-31T04:05:08.319Z,4.05
2023-01-31T04:06:14.545Z,2.58
2023-01-31T04:07:18.340Z,4.30
2023-01-31T04:08:22.788Z,5.10
2023-01-31T04:09:34.697Z,2.25
2023-01-31T04:10:37.660Z,3.90
2023-01-31T04:11:42.072Z,4.15
2023-01-31T04:12:45.873Z,3.13
2023-01-31T04:13:48.953Z,4.25
2023-01-31T04:14:51.928Z,2.53
2023-01-31T04:15:56.926Z,2.90
2023-01-31T04:16:59.814Z,2.50
2023-01-31T04:18:05.264Z,2.90
2023-01-31T04:19:08.160Z,4.43
2023-01-31T04:20:13.344Z,4.13
2023-01-31T04:21:16.750Z,2.80
2023-01-31T04:22:19.609Z,2.53
2023-01-31T04:23:22.464Z,2.47
2023-01-31T04:24:25.666Z,2.65
2023-01-31T04:25:29.088Z,3.97
2023-01-31T04:26:33.399Z,3.05
2023-01-31T04:27:37.025Z,4.03
2023-01-31T04:28:40.399Z,3.47
2023-01-31T04:29:43.529Z,4.22
2023-01-31T04:30:46.407Z,3.15
2023-01-31T04:31:49.420Z,4.10
2023-01-31T04:32:52.425Z,3.97
2023-01-31T04:33:58.208Z,4.28
2023-01-31T04:35:02.428Z,3.17
2023-01-31T04:36:05.871Z,3.53
2023-01-31T04:37:08.887Z,3.63
2023-01-31T04:38:11.747Z,2.42
2023-01-31T04:39:21.961Z,4.30
2023-01-31T04:40:24.724Z,2.70
2023-01-31T04:41:28.033Z,4.32
2023-01-31T04:42:30.921Z,2.67
2023-01-31T04:43:33.875Z,3.83
2023-01-31T04:44:36.682Z,4.00
2023-01-31T04:45:39.486Z,4.07
2023-01-31T04:46:47.041Z,4.40
2023-01-31T04:47:49.980Z,3.80
2023-01-31T04:48:52.837Z,3.28
2023-01-31T04:49:55.896Z,3.53
2023-01-31T04:50:58.722Z,3.97
2023-01-31T04:52:01.717Z,3.78
2023-01-31T04:53:05.110Z,4.05
2023-01-31T04:54:08.391Z,4.63
2023-01-31T04:55:11.355Z,3.53
2023-01-31T04:56:18.480Z,3.75
2023-01-31T04:57:23.939Z,3.85
2023-01-31T04:58:26.772Z,3.95
2023-01-31T04:59:29.727Z,4.07
2023-01-31T05:00:32.862Z,2.22
2023-01-31T05:01:36.265Z,3.95
2023-01-31T05:02:39.223Z,4.00
2023-01-31T05:03:42.075Z,2.55
2023-01-31T05:04:44.966Z,4.00
2023-01-31T05:05:51.533Z,3.00
2023-01-31T05:06:54.462Z,3.80
2023-01-31T05:07:57.406Z,2.95
2023-01-31T05:09:01.864Z,3.60
2023-01-31T05:10:05.272Z,3.45
2023-01-31T05:11:08.727Z,4.40
2023-01-31T05:12:11.620Z,2.38
2023-01-31T05:13:14.871Z,3.25
2023-01-31T05:14:18.722Z,2.85
2023-01-31T05:15:21.973Z,3.22
2023-01-31T05:16:25.458Z,2.88
2023-01-31T05:17:30.139Z,3.00
2023-01-31T05:18:33.019Z,2.90
2023-01-31T05:19:36.163Z,2.67
2023-01-31T05:20:44.001Z,4.30
2023-01-31T05:21:59.319Z,2.80
2023-01-31T05:23:03.818Z,2.97
2023-01-31T05:24:10.195Z,3.88
2023-01-31T05:25:13.005Z,3.17
2023-01-31T05:26:16.020Z,3.92
2023-01-31T05:27:20.012Z,4.13
2023-01-31T05:28:24.205Z,4.22
2023-01-31T05:29:32.328Z,4.20
2023-01-31T05:30:36.513Z,2.85
2023-01-31T05:31:42.006Z,4.00
2023-01-31T05:32:46.260Z,2.72
2023-01-31T05:33:49.448Z,3.88
2023-01-31T05:34:52.529Z,3.42
2023-01-31T05:35:55.338Z,3.60
2023-01-31T05:36:58.222Z,4.18
2023-01-31T05:38:01.168Z,3.95
2023-01-31T05:39:04.242Z,4.78
2023-01-31T05:40:09.837Z,2.90
2023-01-31T05:41:12.879Z,2.83
2023-01-31T05:42:15.644Z,4.57
2023-01-31T05:43:18.991Z,4.40
2023-01-31T05:44:22.233Z,4.78
2023-01-31T05:45:25.229Z,3.72
2023-01-31T05:46:28.147Z,4.68
2023-01-31T05:47:33.348Z,4.32
2023-01-31T05:48:36.916Z,3.95
2023-01-31T05:49:40.027Z,4.75
2023-01-31T05:50:42.893Z,3.97
2023-01-31T05:51:45.741Z,4.70
2023-01-31T05:52:58.810Z,2.80
2023-01-31T05:54:01.747Z,4.97
2023-01-31T05:55:04.770Z,4.47
2023-01-31T05:56:07.949Z,3.20
2023-01-31T05:57:14.636Z,5.15
2023-01-31T05:58:17.494Z,4.30
2023-01-31T05:59:20.431Z,3.38
2023-01-31T06:00:24.429Z,3.08
2023-01-31T06:01:27.929Z,3.20
2023-01-31T06:02:32.327Z,3.40
2023-01-31T06:03:35.434Z,4.78
2023-01-31T06:04:38.670Z,3.38
2023-01-31T06:05:41.470Z,4.43
2023-01-31T06:06:45.623Z,3.47
2023-01-31T06:07:48.484Z,3.42
2023-01-31T06:08:51.372Z,4.15
2023-01-31T06:09:54.169Z,4.53
2023-01-31T06:10:59.183Z,3.03
2023-01-31T06:12:02.137Z,4.53
2023-01-31T06:13:08.115Z,3.13
2023-01-31T06:14:15.537Z,3.65
2023-01-31T06:16:21.846Z,2.97
2023-01-31T06:17:25.021Z,3.28
2023-01-31T06:18:30.835Z,3.53
2023-01-31T06:19:34.007Z,3.85
2023-01-31T06:20:36.918Z,3.10
2023-01-31T06:21:39.924Z,2.85
2023-01-31T06:22:42.850Z,2.92
2023-01-31T06:23:48.040Z,2.90
2023-01-31T06:24:50.998Z,3.45
2023-01-31T06:25:55.892Z,3.50
2023-01-31T06:27:01.997Z,2.60
2023-01-31T06:28:06.076Z,3.53
2023-01-31T06:29:10.048Z,3.00
2023-01-31T06:30:13.409Z,3.20
2023-01-31T06:31:16.326Z,3.17
2023-01-31T06:32:19.222Z,3.38
2023-01-31T06:33:24.471Z,3.60
2023-01-31T06:34:34.464Z,2.88
2023-01-31T06:35:37.862Z,3.47
2023-01-31T06:36:40.847Z,3.88
2023-01-31T06:37:46.806Z,4.60
2023-01-31T06:38:55.928Z,4.53
2023-01-31T06:39:59.513Z,3.78
2023-01-31T06:41:02.590Z,2.92
2023-01-31T06:42:05.884Z,3.42
2023-01-31T06:43:08.726Z,3.10
2023-01-31T06:44:11.587Z,2.95
2023-01-31T06:45:14.549Z,4.72
2023-01-31T06:46:20.455Z,3.13
2023-01-31T06:47:23.391Z,3.28
2023-01-31T06:48:28.678Z,2.85
2023-01-31T06:49:34.135Z,2.88
2023-01-31T06:50:37.324Z,3.47
2023-01-31T06:51:42.558Z,2.88
2023-01-31T06:52:45.351Z,3.08
2023-01-31T06:53:48.195Z,3.58
2023-01-31T06:54:50.993Z,3.00
2023-01-31T06:55:55.293Z,3.00
2023-01-31T06:56:58.295Z,3.13
2023-01-31T06:58:01.205Z,2.70
2023-01-31T06:59:04.065Z,4.50
2023-01-31T07:00:07.795Z,3.30
2023-01-31T07:01:12.950Z,3.28
2023-01-31T07:02:16.917Z,3.30
2023-01-31T07:03:19.933Z,3.42
2023-01-31T07:04:22.968Z,3.05
2023-01-31T07:05:25.866Z,3.95
2023-01-31T07:06:28.810Z,3.22
2023-01-31T07:07:31.557Z,2.72
2023-01-31T07:08:36.143Z,2.85
2023-01-31T07:09:39.293Z,3.40
2023-01-31T07:10:42.228Z,3.10
2023-01-31T07:11:45.003Z,2.83
2023-01-31T07:12:47.969Z,3.30
2023-01-31T07:13:50.866Z,4.20
2023-01-31T07:14:53.803Z,2.72
2023-01-31T07:15:57.282Z,3.00
2023-01-31T07:17:00.156Z,2.83
2023-01-31T07:18:03.027Z,2.97
2023-01-31T07:19:06.011Z,3.15
2023-01-31T07:20:12.207Z,2.88
2023-01-31T07:21:15.048Z,2.60
2023-01-31T07:22:18.187Z,2.85
2023-01-31T07:23:23.343Z,2.55
2023-01-31T07:24:28.275Z,3.08
2023-01-31T07:25:34.227Z,3.17
2023-01-31T07:26:39.256Z,2.80
2023-01-31T07:27:45.145Z,2.85
2023-01-31T07:28:48.035Z,3.28
2023-01-31T07:29:51.463Z,2.88
2023-01-31T07:30:54.344Z,2.72
2023-01-31T07:31:57.979Z,2.45
2023-01-31T07:33:03.287Z,2.67
2023-01-31T07:34:06.139Z,2.70
2023-01-31T07:35:09.336Z,2.60
2023-01-31T07:36:15.696Z,3.13
2023-01-31T07:37:18.645Z,2.38
2023-01-31T07:38:21.480Z,2.55
2023-01-31T07:39:24.505Z,2.83
2023-01-31T07:40:27.488Z,2.67
2023-01-31T07:41:31.216Z,2.78
2023-01-31T07:42:34.107Z,2.50
2023-01-31T07:43:37.039Z,2.50
2023-01-31T07:44:39.881Z,2.50
2023-01-31T07:45:43.065Z,2.55
2023-01-31T07:46:45.996Z,2.72
2023-01-31T07:47:48.787Z,2.55
2023-01-31T07:48:51.621Z,2.67
2023-01-31T07:49:54.499Z,2.35
2023-01-31T07:51:04.718Z,2.35
2023-01-31T07:52:08.551Z,2.35
2023-01-31T07:53:14.338Z,3.88
2023-01-31T07:54:17.109Z,2.47
2023-01-31T07:55:20.206Z,2.67
2023-01-31T07:56:23.573Z,2.45
2023-01-31T07:57:26.507Z,2.72
2023-01-31T07:58:29.646Z,2.72
2023-01-31T07:59:33.233Z,2.50
2023-01-31T08:00:54.350Z,2.40
2023-01-31T08:02:15.536Z,2.30
2023-01-31T08:03:34.926Z,2.10
2023-01-31T08:04:38.016Z,3.35
2023-01-31T08:05:40.864Z,2.17
2023-01-31T08:06:46.293Z,2.70
2023-01-31T08:08:09.084Z,2.17
2023-01-31T08:09:15.403Z,1.73
2023-01-31T08:10:19.503Z,2.13
2023-01-31T08:11:24.872Z,2.20
2023-01-31T08:12:29.390Z,2.63
2023-01-31T08:13:34.058Z,1.80
2023-01-31T08:14:37.013Z,2.30
2023-01-31T08:15:39.951Z,2.22
2023-01-31T08:16:42.838Z,1.95
2023-01-31T08:17:45.671Z,1.98
2023-01-31T08:18:49.390Z,2.03
2023-01-31T08:19:52.339Z,2.25
2023-01-31T08:20:56.497Z,2.58
2023-01-31T08:21:59.384Z,2.47
2023-01-31T08:23:02.300Z,2.38
2023-01-31T08:24:05.428Z,1.73
2023-01-31T08:25:08.702Z,1.83
2023-01-31T08:26:17.348Z,2.58
2023-01-31T08:27:20.218Z,2.00
2023-01-31T08:28:23.150Z,2.20
2023-01-31T08:29:26.638Z,2.15
2023-01-31T08:30:30.361Z,2.30
2023-01-31T08:31:35.665Z,2.40
2023-01-31T08:32:38.570Z,1.98
2023-01-31T08:33:41.444Z,2.15
2023-01-31T08:34:44.283Z,2.17
2023-01-31T08:35:49.451Z,2.25
2023-01-31T08:36:52.679Z,2.10
2023-01-31T08:38:07.023Z,2.22
2023-01-31T08:39:18.712Z,3.53
2023-01-31T08:40:23.905Z,1.77
2023-01-31T08:41:27.954Z,3.10
2023-01-31T08:42:31.456Z,2.03
2023-01-31T08:43:45.649Z,1.90
2023-01-31T08:44:56.833Z,2.10
2023-01-31T08:45:59.704Z,1.90
2023-01-31T08:47:02.966Z,1.90
2023-01-31T08:48:06.060Z,4.05
2023-01-31T08:49:09.315Z,2.03
2023-01-31T08:50:26.015Z,2.10
2023-01-31T08:51:31.512Z,1.88
2023-01-31T08:52:35.669Z,2.08
2023-01-31T08:53:46.114Z,2.15
2023-01-31T08:54:49.151Z,1.88
2023-01-31T08:55:52.028Z,1.90
2023-01-31T08:56:54.887Z,1.88
2023-01-31T08:58:00.288Z,1.80
2023-01-31T08:59:03.447Z,2.20
2023-01-31T09:00:07.727Z,1.70
2023-01-31T09:01:13.480Z,1.88
2023-01-31T09:02:16.408Z,2.03
2023-01-31T09:03:19.265Z,1.85
2023-01-31T09:04:40.664Z,1.38
2023-01-31T09:05:46.043Z,1.23
2023-01-31T09:06:49.953Z,1.48
2023-01-31T09:07:55.338Z,1.65
2023-01-31T09:08:58.882Z,1.75
2023-01-31T09:10:01.873Z,2.05
2023-01-31T09:11:06.207Z,1.80
2023-01-31T09:12:09.228Z,1.77
2023-01-31T09:13:12.016Z,1.77
2023-01-31T09:14:15.977Z,1.73
2023-01-31T09:15:19.279Z,1.70
2023-01-31T09:16:22.562Z,1.63
2023-01-31T09:17:25.417Z,1.83
2023-01-31T09:18:28.942Z,1.80
2023-01-31T09:19:32.382Z,1.42
2023-01-31T09:20:35.302Z,1.75
2023-01-31T09:21:38.582Z,2.28
2023-01-31T09:22:41.472Z,1.90
2023-01-31T09:23:44.717Z,1.52
2023-01-31T09:24:47.657Z,1.58
2023-01-31T09:25:55.193Z,1.42
2023-01-31T09:26:58.119Z,1.60
2023-01-31T09:28:01.007Z,1.65
2023-01-31T09:29:03.929Z,1.73
2023-01-31T09:30:09.540Z,1.80
2023-01-31T09:31:15.640Z,1.52
2023-01-31T09:32:20.079Z,1.70
2023-01-31T09:33:23.870Z,1.75
2023-01-31T09:34:26.774Z,1.60
2023-01-31T09:35:29.654Z,1.75
2023-01-31T09:36:33.010Z,1.48
2023-01-31T09:37:38.514Z,1.80
2023-01-31T09:38:42.332Z,1.70
2023-01-31T09:39:45.261Z,1.75
2023-01-31T09:40:48.441Z,1.70
2023-01-31T09:41:59.214Z,1.92
2023-01-31T09:43:06.632Z,1.67
2023-01-31T09:45:34.579Z,1.42
2023-01-31T09:46:45.406Z,1.73
2023-01-31T09:47:53.646Z,1.40
2023-01-31T09:49:00.867Z,1.67
2023-01-31T09:50:12.967Z,1.92
2023-01-31T09:51:17.326Z,1.85
2023-01-31T09:52:42.309Z,1.52
2023-01-31T09:53:51.102Z,1.75
2023-01-31T09:54:54.419Z,1.55
2023-01-31T09:56:28.326Z,1.90
2023-01-31T09:57:49.063Z,1.65
2023-01-31T09:58:59.031Z,1.73
2023-01-31T10:00:20.372Z,1.85
2023-01-31T10:01:43.949Z,2.20
2023-01-31T10:03:20.763Z,1.58
2023-01-31T10:04:44.687Z,1.73
2023-01-31T10:06:02.809Z,1.63
2023-01-31T10:07:07.315Z,1.33
2023-01-31T10:08:21.429Z,1.92
2023-01-31T10:09:36.407Z,1.23
2023-01-31T10:11:01.282Z,1.65
2023-01-31T10:12:19.908Z,1.70
2023-01-31T10:13:35.653Z,1.48
2023-01-31T10:14:50.744Z,1.40
2023-01-31T10:15:59.670Z,1.60
2023-01-31T10:17:24.277Z,1.65
2023-01-31T10:18:34.891Z,1.33
2023-01-31T10:19:52.551Z,1.63
2023-01-31T10:21:20.949Z,1.38
2023-01-31T10:22:36.154Z,1.88
2023-01-31T10:23:51.208Z,1.55
2023-01-31T10:25:00.075Z,1.63
2023-01-31T10:26:18.809Z,1.38
2023-01-31T10:27:42.071Z,1.40
2023-01-31T10:29:14.044Z,1.63
2023-01-31T10:30:22.314Z,1.40
2023-01-31T10:31:43.771Z,1.38
2023-01-31T10:32:52.008Z,1.23
2023-01-31T10:34:07.162Z,1.10
2023-01-31T10:35:28.107Z,0.95
2023-01-31T10:36:36.651Z,1.33
2023-01-31T10:37:49.895Z,1.02
2023-01-31T10:38:59.725Z,1.30
2023-01-31T10:40:26.341Z,1.45
2023-01-31T10:42:02.534Z,1.55
2023-01-31T10:43:32.936Z,1.13
2023-01-31T10:44:52.392Z,1.58
2023-01-31T10:46:02.431Z,1.83
2023-01-31T10:47:16.150Z,1.08
2023-01-31T10:48:26.545Z,1.10
2023-01-31T10:49:29.836Z,1.02
2023-01-31T10:50:42.409Z,1.55
2023-01-31T10:52:04.798Z,1.55
2023-01-31T10:53:32.383Z,1.60
2023-01-31T10:54:50.551Z,1.33
2023-01-31T10:56:13.827Z,1.42
2023-01-31T10:57:18.505Z,1.48
2023-01-31T10:58:23.423Z,1.20
2023-01-31T10:59:37.857Z,1.20
2023-01-31T11:00:40.889Z,1.52
2023-01-31T11:01:45.496Z,1.10
2023-01-31T11:02:48.582Z,1.20
2023-01-31T11:03:53.475Z,1.52
2023-01-31T11:04:59.264Z,1.25
2023-01-31T11:06:02.318Z,1.33
2023-01-31T11:07:06.607Z,1.20
2023-01-31T11:08:30.060Z,1.45
2023-01-31T11:09:37.380Z,1.20
2023-01-31T11:10:52.195Z,2.10
2023-01-31T11:12:04.207Z,1.20
2023-01-31T11:13:09.781Z,1.75
2023-01-31T11:14:18.769Z,1.45
2023-01-31T11:15:28.659Z,1.35
2023-01-31T11:16:35.661Z,0.95
2023-01-31T11:17:42.674Z,1.20
2023-01-31T11:18:49.513Z,1.20
2023-01-31T11:19:55.763Z,1.55
2023-01-31T11:21:01.331Z,1.27
2023-01-31T11:22:05.134Z,1.00
2023-01-31T11:23:08.293Z,1.10
2023-01-31T11:24:21.639Z,1.50
2023-01-31T11:25:26.919Z,1.50
2023-01-31T11:26:37.026Z,1.27
2023-01-31T11:27:42.772Z,1.02
2023-01-31T11:28:52.637Z,1.15
2023-01-31T11:30:00.180Z,1.17
2023-01-31T11:31:20.727Z,0.80
2023-01-31T11:32:30.499Z,1.30
2023-01-31T11:33:47.803Z,1.40
2023-01-31T11:35:14.934Z,1.30
2023-01-31T11:36:26.999Z,1.08
2023-01-31T11:37:32.061Z,1.20
2023-01-31T11:38:36.098Z,0.90
2023-01-31T11:39:40.113Z,1.10
2023-01-31T11:40:42.991Z,0.98
2023-01-31T11:41:48.868Z,2.00
2023-01-31T11:42:53.069Z,1.13
2023-01-31T11:44:18.105Z,1.65
2023-01-31T11:45:24.071Z,1.02
2023-01-31T11:46:27.046Z,1.30
2023-01-31T11:47:49.524Z,0.82
2023-01-31T11:48:52.395Z,1.20
2023-01-31T11:49:55.401Z,1.35
2023-01-31T11:51:02.131Z,1.30
2023-01-31T11:52:16.161Z,1.30
2023-01-31T11:53:51.103Z,1.13
2023-01-31T11:55:05.451Z,1.02
2023-01-31T11:56:18.093Z,2.08
2023-01-31T11:57:29.009Z,1.08
2023-01-31T11:58:38.143Z,1.00
2023-01-31T11:59:41.407Z,1.73
2023-01-31T12:01:07.319Z,0.93
2023-01-31T12:02:31.675Z,1.45
2023-01-31T12:03:34.810Z,0.70
2023-01-31T12:04:42.843Z,1.33
2023-01-31T12:05:50.159Z,1.17
2023-01-31T12:07:05.406Z,1.60
2023-01-31T12:08:38.550Z,1.33
2023-01-31T12:09:44.259Z,1.38
2023-01-31T12:10:51.209Z,1.20
2023-01-31T12:12:07.958Z,1.67
2023-01-31T12:13:19.265Z,1.23
2023-01-31T12:14:25.262Z,1.60
2023-01-31T12:15:30.269Z,2.67
2023-01-31T12:16:34.295Z,1.50
2023-01-31T12:17:45.787Z,2.35
2023-01-31T12:19:12.935Z,1.77
2023-01-31T12:20:38.654Z,1.80
2023-01-31T12:22:18.336Z,1.30
2023-01-31T12:23:27.058Z,1.42
2023-01-31T12:24:53.040Z,1.65
2023-01-31T12:26:11.374Z,1.75
2023-01-31T12:27:47.312Z,1.40
2023-01-31T12:29:27.474Z,1.30
2023-01-31T12:31:00.649Z,1.65
2023-01-31T12:32:06.281Z,1.55
2023-01-31T12:33:53.719Z,1.35
2023-01-31T12:35:21.979Z,1.27
2023-01-31T12:36:45.268Z,1.48
2023-01-31T12:38:09.123Z,2.00
2023-01-31T12:39:20.783Z,1.90
2023-01-31T12:40:41.720Z,1.73
2023-01-31T12:42:01.885Z,1.52
2023-01-31T12:43:17.004Z,1.83
2023-01-31T12:44:32.207Z,1.92
2023-01-31T12:45:54.337Z,2.05
2023-01-31T12:47:18.289Z,1.80
2023-01-31T12:48:38.173Z,1.75
2023-01-31T12:49:56.045Z,1.77
2023-01-31T12:51:18.032Z,1.67
2023-01-31T12:52:45.830Z,1.75
2023-01-31T12:54:01.472Z,1.67
2023-01-31T12:55:24.829Z,1.80
2023-01-31T12:56:45.872Z,1.83
2023-01-31T12:58:09.767Z,1.50
2023-01-31T12:59:30.934Z,1.58
2023-01-31T13:01:03.661Z,1.70
2023-01-31T13:02:37.443Z,1.55
2023-01-31T13:03:53.427Z,1.70
2023-01-31T13:05:11.466Z,1.60
2023-01-31T13:06:20.370Z,1.60
2023-01-31T13:07:34.371Z,1.60
2023-01-31T13:08:41.235Z,1.88
2023-01-31T13:09:49.007Z,1.92
2023-01-31T13:10:59.482Z,1.83
2023-01-31T13:12:25.350Z,1.85
2023-01-31T13:13:53.928Z,2.30
2023-01-31T13:15:25.828Z,2.20
2023-01-31T13:16:47.831Z,1.63
2023-01-31T13:17:57.569Z,1.45
2023-01-31T13:19:15.834Z,2.10
2023-01-31T13:20:31.878Z,2.15
2023-01-31T13:21:39.650Z,1.98
2023-01-31T13:22:52.740Z,1.83
2023-01-31T13:24:18.198Z,2.20
2023-01-31T13:25:28.741Z,1.98
2023-01-31T13:26:39.055Z,1.83
2023-01-31T13:27:49.298Z,1.75
2023-01-31T13:28:58.413Z,2.13
2023-01-31T13:30:08.564Z,1.48
2023-01-31T13:31:38.248Z,2.00
2023-01-31T13:32:50.200Z,1.83
2023-01-31T13:33:57.008Z,1.90
2023-01-31T13:35:05.878Z,1.77
2023-01-31T13:36:20.064Z,1.50
2023-01-31T13:37:23.508Z,1.65
2023-01-31T13:38:31.301Z,1.98
2023-01-31T13:39:40.044Z,1.50
2023-01-31T13:40:55.065Z,1.65
2023-01-31T13:41:58.333Z,1.70
2023-01-31T13:43:09.221Z,1.50
2023-01-31T13:44:17.292Z,1.80
2023-01-31T13:45:26.625Z,1.90
2023-01-31T13:46:46.856Z,1.83
2023-01-31T13:48:05.948Z,1.67
2023-01-31T13:49:26.437Z,1.52
2023-01-31T13:50:35.122Z,1.60
2023-01-31T13:52:00.555Z,1.73
2023-01-31T13:53:07.305Z,1.30
2023-01-31T13:54:57.911Z,1.80
2023-01-31T13:56:05.351Z,1.33
2023-01-31T13:57:19.654Z,1.52
2023-01-31T13:58:30.191Z,1.42
2023-01-31T13:59:38.032Z,1.67
2023-01-31T14:00:47.454Z,1.48
2023-01-31T14:01:51.951Z,1.48
2023-01-31T14:03:10.361Z,1.77
2023-01-31T14:04:16.229Z,1.65
2023-01-31T14:05:45.077Z,1.70
2023-01-31T14:06:56.608Z,1.58
2023-01-31T14:08:27.320Z,2.20
2023-01-31T14:09:32.610Z,1.77
2023-01-31T14:10:43.127Z,1.38
2023-01-31T14:11:46.021Z,1.55
2023-01-31T14:12:51.242Z,1.70
2023-01-31T14:14:39.078Z,2.55
2023-01-31T14:15:52.261Z,1.63
2023-01-31T14:16:58.373Z,2.15
2023-01-31T14:18:02.197Z,1.73
2023-01-31T14:19:26.697Z,1.60
2023-01-31T14:20:32.649Z,1.88
2023-01-31T14:21:50.748Z,1.80
2023-01-31T14:23:32.599Z,1.60
2023-01-31T14:24:47.811Z,2.03
2023-01-31T14:25:50.830Z,1.42
2023-01-31T14:26:55.070Z,2.22
2023-01-31T14:28:00.110Z,2.10
2023-01-31T14:29:21.071Z,1.77
2023-01-31T14:30:48.073Z,1.92
2023-01-31T14:31:53.239Z,2.25
2023-01-31T14:32:58.847Z,2.38
2023-01-31T14:34:03.643Z,1.83
2023-01-31T14:35:24.692Z,2.30
2023-01-31T14:36:46.200Z,2.22
2023-01-31T14:38:13.803Z,2.10
2023-01-31T14:39:53.069Z,3.20
2023-01-31T14:41:08.493Z,2.30
2023-01-31T14:42:34.570Z,1.83
2023-01-31T14:44:08.591Z,2.22
2023-01-31T14:45:34.660Z,2.15
2023-01-31T14:46:40.406Z,2.33
2023-01-31T14:48:14.039Z,2.40
2023-01-31T14:49:40.170Z,2.10
2023-01-31T14:50:48.489Z,2.30
2023-01-31T14:52:12.683Z,3.38
2023-01-31T14:53:35.632Z,2.35
2023-01-31T14:55:08.934Z,2.28
2023-01-31T14:56:52.631Z,2.40
2023-01-31T14:57:59.160Z,2.38
2023-01-31T14:59:02.873Z,2.08
2023-01-31T15:00:20.986Z,2.10
2023-01-31T15:01:34.300Z,2.65
2023-01-31T15:02:54.609Z,2.13
2023-01-31T15:04:01.988Z,3.60
2023-01-31T15:05:09.454Z,2.03
2023-01-31T15:06:23.337Z,2.60
2023-01-31T15:07:26.567Z,2.28
2023-01-31T15:08:38.570Z,2.35
2023-01-31T15:09:44.476Z,2.22
2023-01-31T15:11:15.106Z,2.88
2023-01-31T15:12:52.467Z,1.90
2023-01-31T15:13:58.471Z,2.53
2023-01-31T15:15:04.195Z,2.45
2023-01-31T15:16:15.849Z,2.20
2023-01-31T15:17:36.407Z,2.38
2023-01-31T15:18:43.109Z,2.70
2023-01-31T15:19:55.465Z,2.20
2023-01-31T15:21:02.321Z,3.30
2023-01-31T15:22:10.297Z,2.10
2023-01-31T15:23:24.369Z,2.13
2023-01-31T15:24:41.899Z,2.08
2023-01-31T15:25:46.926Z,2.20
2023-01-31T15:26:53.652Z,2.40
2023-01-31T15:27:57.873Z,2.45
2023-01-31T15:29:02.068Z,2.78
2023-01-31T15:30:22.965Z,2.30
2023-01-31T15:31:37.106Z,2.60